Time;durP1;ratioP1;P1;durP2;ratioP2;P2;SDS_P1;SDS_P2;PMS_P1;PMS_P2;Temp;Humidity;BMP_temperature;BMP_pressure;BME280_temperature;BME280_humidity;BME280_pressure;Samples;Min_cycle;Max_cycle;Signal;HPM_P1;HPM_P2
2022/01/07 00:00:59;;;;;;;2.15;0.98;;;16.40;47.70;;;;;;5093135;28;20017;-62
2022/01/07 00:03:25;;;;;;;3.22;1.13;;;16.50;47.50;;;;;;5093062;28;20008;-64
2022/01/07 00:05:51;;;;;;;2.53;1.25;;;16.60;47.20;;;;;;5093560;28;20069;-63
2022/01/07 00:08:18;;;;;;;1.63;0.98;;;16.70;47.10;;;;;;5092925;28;20044;-63
2022/01/07 00:10:44;;;;;;;2.05;1.10;;;16.70;46.80;;;;;;5092861;28;20140;-63
2022/01/07 00:13:11;;;;;;;1.23;0.90;;;16.80;46.60;;;;;;5092736;28;20128;-63
2022/01/07 00:15:37;;;;;;;1.33;1.13;;;16.80;46.50;;;;;;5092791;28;20028;-63
2022/01/07 00:18:02;;;;;;;1.75;1.02;;;16.90;46.30;;;;;;5093017;28;20017;-63
2022/01/07 00:20:28;;;;;;;2.60;1.40;;;16.90;46.20;;;;;;5092823;28;20466;-65
2022/01/07 00:22:54;;;;;;;1.52;1.02;;;17.00;46.00;;;;;;5091709;28;20013;-63
2022/01/07 00:25:22;;;;;;;2.33;1.30;;;17.00;45.90;;;;;;5092740;28;20458;-64
2022/01/07 00:27:48;;;;;;;1.60;0.93;;;17.10;45.70;;;;;;5093066;28;20020;-63
2022/01/07 00:30:14;;;;;;;2.22;1.20;;;17.10;45.70;;;;;;5092849;28;20020;-64
2022/01/07 00:32:40;;;;;;;4.70;1.40;;;17.10;45.50;;;;;;5096389;28;20088;-63
2022/01/07 00:35:07;;;;;;;1.85;0.90;;;17.20;45.50;;;;;;5097062;28;20012;-64
2022/01/07 00:37:34;;;;;;;2.03;1.02;;;17.20;45.30;;;;;;5097110;28;20036;-63
2022/01/07 00:40:00;;;;;;;2.50;1.20;;;17.20;45.30;;;;;;5096583;28;20478;-63
2022/01/07 00:42:26;;;;;;;1.83;1.00;;;17.20;45.20;;;;;;5096960;28;20466;-63
2022/01/07 00:44:52;;;;;;;2.42;1.20;;;17.20;45.20;;;;;;5097025;28;20042;-64
2022/01/07 00:47:18;;;;;;;1.50;0.98;;;17.30;45.10;;;;;;5096413;28;20048;-63
2022/01/07 00:49:44;;;;;;;2.63;0.98;;;17.30;45.10;;;;;;5094808;28;20039;-63
2022/01/07 00:52:10;;;;;;;1.33;0.90;;;17.30;45.00;;;;;;5096600;28;20066;-63
2022/01/07 00:54:36;;;;;;;1.63;1.00;;;17.40;45.00;;;;;;5096513;28;20483;-64
2022/01/07 00:57:04;;;;;;;2.08;1.17;;;17.40;44.90;;;;;;5096776;28;20032;-62
2022/01/07 00:59:31;;;;;;;1.77;1.10;;;17.40;44.80;;;;;;5096351;28;20069;-62
2022/01/07 01:01:57;;;;;;;1.52;1.10;;;17.40;44.70;;;;;;5096171;28;20016;-64
2022/01/07 01:04:23;;;;;;;2.33;1.40;;;17.40;44.70;;;;;;5096251;28;20008;-65
2022/01/07 01:06:49;;;;;;;2.30;1.23;;;17.50;44.60;;;;;;5097004;28;20099;-64
2022/01/07 01:09:15;;;;;;;2.75;1.15;;;17.50;44.50;;;;;;5096981;28;20047;-62
2022/01/07 01:11:41;;;;;;;1.60;1.10;;;17.50;44.50;;;;;;5097665;28;20012;-63
2022/01/07 01:14:06;;;;;;;1.50;1.00;;;17.50;44.50;;;;;;5078858;28;20386;-63
2022/01/07 01:16:32;;;;;;;1.90;1.27;;;17.50;44.40;;;;;;5096882;28;20439;-64
2022/01/07 01:18:58;;;;;;;2.03;1.02;;;17.50;44.30;;;;;;5096821;28;20034;-62
2022/01/07 01:21:24;;;;;;;1.45;1.10;;;17.60;44.30;;;;;;5096723;28;20066;-64
2022/01/07 01:23:50;;;;;;;1.55;0.90;;;17.50;44.20;;;;;;5098169;28;20095;-62
2022/01/07 01:26:18;;;;;;;1.63;1.10;;;17.60;44.30;;;;;;5097200;28;20489;-64
2022/01/07 01:28:44;;;;;;;1.42;1.00;;;17.60;44.30;;;;;;5097415;28;20081;-63
2022/01/07 01:31:14;;;;;;;3.90;1.17;;;17.60;44.20;;;;;;5096880;28;20019;-62
2022/01/07 01:33:39;;;;;;;1.63;1.13;;;17.60;44.20;;;;;;5097129;28;20037;-64
2022/01/07 01:36:08;;;;;;;1.45;0.93;;;17.60;44.20;;;;;;5097805;28;20103;-63
2022/01/07 01:38:35;;;;;;;1.30;0.90;;;17.60;44.10;;;;;;5097663;28;20089;-63
2022/01/07 01:41:01;;;;;;;2.67;1.30;;;17.60;44.10;;;;;;5097534;28;20481;-64
2022/01/07 01:43:27;;;;;;;1.48;1.02;;;17.60;44.10;;;;;;5096468;28;20059;-63
2022/01/07 01:45:54;;;;;;;2.28;1.02;;;17.60;44.10;;;;;;5097866;28;20031;-64
2022/01/07 01:48:20;;;;;;;1.95;0.98;;;17.60;44.10;;;;;;5097978;28;20020;-64
2022/01/07 01:50:47;;;;;;;1.45;0.90;;;17.70;44.10;;;;;;5098115;28;20099;-64
2022/01/07 01:53:14;;;;;;;2.47;1.20;;;17.70;44.10;;;;;;5097787;28;20028;-64
2022/01/07 01:55:41;;;;;;;1.33;0.85;;;17.70;44.70;;;;;;5097920;28;20020;-65
2022/01/07 01:58:07;;;;;;;2.17;1.25;;;17.70;44.10;;;;;;5098737;28;20156;-65
2022/01/07 02:00:33;;;;;;;1.67;0.90;;;17.70;44.10;;;;;;5097565;28;20483;-64
2022/01/07 02:03:00;;;;;;;1.95;1.02;;;17.70;44.00;;;;;;5096559;28;20037;-64
2022/01/07 02:05:27;;;;;;;2.50;1.17;;;17.70;44.10;;;;;;5095067;28;20024;-63
2022/01/07 02:07:53;;;;;;;2.17;1.50;;;17.70;44.00;;;;;;5096116;28;20055;-63
2022/01/07 02:10:20;;;;;;;0.93;0.82;;;17.70;44.10;;;;;;5096400;28;20023;-62
2022/01/07 02:12:46;;;;;;;1.80;1.17;;;17.70;44.00;;;;;;5095814;28;20099;-63
2022/01/07 02:15:13;;;;;;;1.00;0.80;;;17.70;44.00;;;;;;5094453;28;20019;-63
2022/01/07 02:17:43;;;;;;;2.10;1.20;;;17.80;44.10;;;;;;5096045;28;20070;-63
2022/01/07 02:20:09;;;;;;;1.20;0.98;;;17.80;44.10;;;;;;5096368;28;20054;-63
2022/01/07 02:22:35;;;;;;;2.30;1.15;;;17.70;44.10;;;;;;5096464;28;20012;-63
2022/01/07 02:25:04;;;;;;;1.30;0.70;;;17.80;44.10;;;;;;5095546;28;20020;-63
2022/01/07 02:27:30;;;;;;;1.73;0.90;;;17.80;44.00;;;;;;5095159;28;20016;-63
2022/01/07 02:29:57;;;;;;;1.75;1.00;;;17.80;44.00;;;;;;5093427;28;20016;-64
2022/01/07 02:32:23;;;;;;;1.33;1.10;;;17.80;44.00;;;;;;5094782;28;20016;-63
2022/01/07 02:34:49;;;;;;;1.92;1.20;;;17.90;44.00;;;;;;5094371;28;20012;-63
2022/01/07 02:37:15;;;;;;;1.42;0.90;;;17.80;44.00;;;;;;5094900;28;20066;-63
2022/01/07 02:39:41;;;;;;;1.63;1.00;;;17.90;44.00;;;;;;5094999;28;20008;-63
2022/01/07 02:42:07;;;;;;;1.15;0.88;;;17.90;44.00;;;;;;5094621;28;20431;-64
2022/01/07 02:44:33;;;;;;;1.60;0.90;;;17.90;44.00;;;;;;5093199;28;20027;-63
2022/01/07 02:46:59;;;;;;;1.42;1.08;;;17.90;43.90;;;;;;5094659;28;20100;-63
2022/01/07 02:49:26;;;;;;;1.30;0.90;;;17.90;43.90;;;;;;5094037;28;20023;-63
2022/01/07 02:51:52;;;;;;;1.30;0.95;;;17.90;43.90;;;;;;5092750;28;20047;-62
2022/01/07 02:54:17;;;;;;;4.05;1.02;;;17.90;44.50;;;;;;5093155;28;20044;-63
2022/01/07 02:56:43;;;;;;;1.38;0.82;;;17.90;43.80;;;;;;5092897;28;20413;-62
2022/01/07 02:59:11;;;;;;;1.55;1.00;;;17.90;43.80;;;;;;5094413;28;20024;-63
2022/01/07 03:01:37;;;;;;;1.25;0.90;;;18.00;43.90;;;;;;5093426;28;20039;-65
2022/01/07 03:04:04;;;;;;;1.90;1.05;;;18.00;44.50;;;;;;5094150;28;20505;-64
2022/01/07 03:06:30;;;;;;;1.58;1.05;;;18.00;43.90;;;;;;5093800;28;20015;-66
2022/01/07 03:08:56;;;;;;;1.83;1.00;;;18.00;43.90;;;;;;5075859;28;20058;-66
2022/01/07 03:11:22;;;;;;;2.38;1.30;;;18.00;43.90;;;;;;5093948;28;20024;-65
2022/01/07 03:13:48;;;;;;;0.98;0.82;;;18.00;43.80;;;;;;5093833;28;20016;-64
2022/01/07 03:16:13;;;;;;;1.42;0.93;;;18.00;43.90;;;;;;5093978;28;20061;-64
2022/01/07 03:18:39;;;;;;;3.53;1.08;;;18.00;43.80;;;;;;5093703;28;20009;-64
2022/01/07 03:21:05;;;;;;;1.63;1.13;;;18.10;43.90;;;;;;5093700;28;20020;-66
2022/01/07 03:23:31;;;;;;;1.65;1.10;;;18.10;43.80;;;;;;5094065;28;20040;-65
2022/01/07 03:25:59;;;;;;;1.40;0.80;;;18.00;43.70;;;;;;5093901;28;20045;-66
2022/01/07 03:28:25;;;;;;;3.63;1.10;;;18.00;43.70;;;;;;5093814;28;20497;-66
2022/01/07 03:30:51;;;;;;;1.38;0.88;;;18.00;43.80;;;;;;5092988;28;20016;-66
2022/01/07 03:33:19;;;;;;;1.27;0.95;;;18.00;43.90;;;;;;5094404;28;20069;-65
2022/01/07 03:35:45;;;;;;;1.70;1.00;;;18.00;44.00;;;;;;5094102;28;20024;-66
2022/01/07 03:38:11;;;;;;;1.17;0.80;;;17.90;44.00;;;;;;5094079;28;20039;-64
2022/01/07 03:40:37;;;;;;;2.20;1.00;;;17.90;44.10;;;;;;5094366;28;20046;-64
2022/01/07 03:43:04;;;;;;;1.95;1.02;;;17.90;44.10;;;;;;5094188;28;20495;-62
2022/01/07 03:45:30;;;;;;;1.33;0.90;;;17.80;44.20;;;;;;5094627;28;20032;-64
2022/01/07 03:47:56;;;;;;;1.42;0.80;;;17.80;44.30;;;;;;5094330;28;20031;-64
2022/01/07 03:50:23;;;;;;;1.30;0.75;;;17.70;44.30;;;;;;5094139;28;20024;-63
2022/01/07 03:52:49;;;;;;;2.40;1.02;;;17.70;44.40;;;;;;5094009;28;20018;-63
2022/01/07 03:55:18;;;;;;;1.02;0.80;;;17.70;44.60;;;;;;5095330;28;20106;-63
2022/01/07 03:57:47;;;;;;;1.70;0.80;;;17.60;44.70;;;;;;5093507;28;20073;-63
2022/01/07 04:00:15;;;;;;;1.67;1.15;;;17.50;44.80;;;;;;5094381;28;20016;-63
2022/01/07 04:02:40;;;;;;;1.10;0.70;;;17.50;44.90;;;;;;5093874;28;20065;-63
2022/01/07 04:05:08;;;;;;;1.88;1.00;;;17.50;44.90;;;;;;5093649;28;20012;-63
2022/01/07 04:07:35;;;;;;;1.33;1.08;;;17.40;45.20;;;;;;5096014;28;20378;-64
2022/01/07 04:10:01;;;;;;;1.95;1.10;;;17.40;45.30;;;;;;5096841;28;20421;-63
2022/01/07 04:12:28;;;;;;;1.50;0.90;;;17.30;45.40;;;;;;5096848;28;20471;-63
2022/01/07 04:17:33;;;;;;;1.30;0.73;;;17.20;45.70;;;;;;5097130;28;20114;-63
2022/01/07 04:19:59;;;;;;;1.73;0.80;;;17.10;45.60;;;;;;5097152;28;20016;-63
2022/01/07 04:22:24;;;;;;;1.73;0.80;;;17.20;45.80;;;;;;5096831;28;20406;-63
2022/01/07 04:24:52;;;;;;;1.63;1.00;;;17.10;45.90;;;;;;5096668;28;20023;-62
2022/01/07 04:27:18;;;;;;;1.27;0.82;;;17.00;46.00;;;;;;5096668;28;20026;-63
2022/01/07 04:29:45;;;;;;;2.17;1.10;;;16.90;46.20;;;;;;5096390;28;20019;-63
2022/01/07 04:32:11;;;;;;;1.27;0.80;;;16.90;46.30;;;;;;5096814;28;20024;-63
2022/01/07 04:34:38;;;;;;;1.40;0.95;;;16.90;46.40;;;;;;5096724;28;20024;-63
2022/01/07 04:37:04;;;;;;;1.33;0.82;;;16.80;46.50;;;;;;5096374;28;20028;-63
2022/01/07 04:39:30;;;;;;;1.33;0.80;;;16.80;46.60;;;;;;5096666;28;20025;-63
2022/01/07 04:41:59;;;;;;;3.85;1.17;;;16.70;46.50;;;;;;5096546;28;20344;-65
2022/01/07 04:44:24;;;;;;;1.52;1.00;;;16.70;46.80;;;;;;5096422;28;20032;-65
2022/01/07 04:46:50;;;;;;;1.67;1.10;;;16.70;46.70;;;;;;5095633;28;20020;-65
2022/01/07 04:49:16;;;;;;;1.13;0.95;;;16.70;46.90;;;;;;5097215;28;20023;-65
2022/01/07 04:51:41;;;;;;;1.40;0.90;;;16.60;46.90;;;;;;5095561;28;20546;-65
2022/01/07 04:54:08;;;;;;;1.80;0.90;;;16.60;47.00;;;;;;5095448;28;20478;-65
2022/01/07 04:56:41;;;;;;;1.35;1.00;;;16.70;46.90;;;;;;5096946;28;20063;-64
2022/01/07 04:59:06;;;;;;;1.50;1.00;;;16.70;46.70;;;;;;5096624;28;20024;-65
2022/01/07 05:01:32;;;;;;;1.88;1.00;;;16.80;46.70;;;;;;5097282;28;20478;-65
2022/01/07 05:03:59;;;;;;;1.42;0.90;;;16.80;46.40;;;;;;5096075;28;20016;-65
2022/01/07 05:06:44;;;;;;;1.17;0.70;;;16.80;46.40;;;;;;5097129;28;20364;-64
2022/01/07 05:09:10;;;;;;;1.20;0.85;;;16.80;46.50;;;;;;5095837;28;20054;-65
2022/01/07 05:11:36;;;;;;;1.70;1.10;;;16.80;46.50;;;;;;5096766;28;20023;-64
2022/01/07 05:14:03;;;;;;;1.40;1.00;;;16.80;46.50;;;;;;5095321;28;20027;-64
2022/01/07 05:16:30;;;;;;;1.30;1.00;;;16.80;46.60;;;;;;5096674;28;20043;-65
2022/01/07 05:18:57;;;;;;;1.70;0.90;;;16.70;46.70;;;;;;5095242;28;20004;-65
2022/01/07 05:21:23;;;;;;;1.10;0.90;;;16.70;46.80;;;;;;5078276;28;20031;-64
2022/01/07 05:23:48;;;;;;;1.30;1.10;;;16.60;46.90;;;;;;5095797;28;20020;-65
2022/01/07 05:26:15;;;;;;;1.60;1.08;;;16.60;47.00;;;;;;5096465;28;20027;-64
2022/01/07 05:28:41;;;;;;;1.35;0.95;;;16.60;47.10;;;;;;5096917;28;20040;-63
2022/01/07 05:31:06;;;;;;;1.25;0.82;;;16.50;47.10;;;;;;5096059;28;20017;-64
2022/01/07 05:33:32;;;;;;;2.33;1.08;;;16.50;47.10;;;;;;5094722;28;20016;-65
2022/01/07 05:35:58;;;;;;;1.58;1.10;;;16.50;47.10;;;;;;5095337;28;20032;-63
2022/01/07 05:38:24;;;;;;;2.35;0.80;;;16.50;47.10;;;;;;5095836;28;20032;-64
2022/01/07 05:40:50;;;;;;;1.02;0.70;;;16.50;47.20;;;;;;5095528;28;20039;-65
2022/01/07 05:43:17;;;;;;;2.38;1.27;;;16.40;47.20;;;;;;5095510;28;20073;-62
2022/01/07 05:45:45;;;;;;;4.22;1.30;;;16.50;47.30;;;;;;5095392;28;20012;-64
2022/01/07 05:48:14;;;;;;;1.92;1.00;;;16.40;47.30;;;;;;5094996;28;20024;-64
2022/01/07 05:50:40;;;;;;;2.05;1.00;;;16.40;47.40;;;;;;5094951;28;20020;-64
2022/01/07 05:53:05;;;;;;;1.75;1.10;;;16.30;47.50;;;;;;5094936;28;20020;-64
2022/01/07 05:55:31;;;;;;;1.63;0.98;;;16.30;47.60;;;;;;5094696;28;20028;-64
2022/01/07 05:57:57;;;;;;;1.92;1.02;;;16.30;47.60;;;;;;5094804;28;20463;-64
2022/01/07 06:00:23;;;;;;;1.63;1.23;;;16.30;47.60;;;;;;5076796;28;20459;-64
2022/01/07 06:02:49;;;;;;;1.23;0.80;;;16.20;47.60;;;;;;5094503;28;20012;-63
2022/01/07 06:05:15;;;;;;;1.70;1.00;;;16.20;47.70;;;;;;5094816;28;20034;-63
2022/01/07 06:07:40;;;;;;;1.38;0.90;;;16.20;47.80;;;;;;5095008;28;20107;-63
2022/01/07 06:10:07;;;;;;;1.83;0.98;;;16.20;47.80;;;;;;5094767;28;20020;-62
2022/01/07 06:12:32;;;;;;;1.35;1.05;;;16.20;47.80;;;;;;5094875;28;20038;-62
2022/01/07 06:14:59;;;;;;;0.98;0.70;;;16.20;47.80;;;;;;5094336;28;20104;-63
2022/01/07 06:17:25;;;;;;;1.75;1.00;;;16.20;47.90;;;;;;5094605;28;20107;-62
2022/01/07 06:19:51;;;;;;;1.45;0.85;;;16.10;47.90;;;;;;5094456;28;20040;-62
2022/01/07 06:22:17;;;;;;;2.38;1.02;;;16.10;48.00;;;;;;5094267;28;20043;-62
2022/01/07 06:24:43;;;;;;;1.85;1.10;;;16.10;48.00;;;;;;5094107;28;20051;-63
2022/01/07 06:27:09;;;;;;;1.40;0.85;;;16.10;48.10;;;;;;5076534;28;20026;-62
2022/01/07 06:29:35;;;;;;;1.25;0.93;;;16.00;48.00;;;;;;5094155;28;20467;-62
2022/01/07 06:32:00;;;;;;;1.63;0.80;;;16.00;48.10;;;;;;5094096;28;20355;-62
2022/01/07 06:34:26;;;;;;;1.25;0.85;;;16.00;48.10;;;;;;5094012;28;20150;-62
2022/01/07 06:36:53;;;;;;;1.55;0.90;;;16.00;48.10;;;;;;5093934;28;20025;-63
2022/01/07 06:39:19;;;;;;;1.60;1.10;;;16.00;48.20;;;;;;5094119;28;20012;-63
2022/01/07 06:41:47;;;;;;;2.05;0.80;;;16.00;48.20;;;;;;5093783;28;20198;-62
2022/01/07 06:44:13;;;;;;;1.95;1.15;;;16.00;48.20;;;;;;5094147;28;20089;-63
2022/01/07 06:46:39;;;;;;;1.80;1.00;;;16.00;48.30;;;;;;5094057;28;20477;-61
2022/01/07 06:49:05;;;;;;;1.38;0.90;;;16.00;48.20;;;;;;5093477;28;20016;-64
2022/01/07 06:51:32;;;;;;;1.70;1.05;;;16.00;48.20;;;;;;5093295;28;20074;-62
2022/01/07 06:53:58;;;;;;;1.48;1.08;;;16.00;48.30;;;;;;5094366;28;20458;-65
2022/01/07 06:56:24;;;;;;;1.23;0.98;;;15.90;48.20;;;;;;5094119;28;20055;-62
2022/01/07 06:58:51;;;;;;;1.70;1.20;;;15.90;48.30;;;;;;5094196;28;20020;-62
2022/01/07 07:01:16;;;;;;;2.53;1.20;;;15.90;48.30;;;;;;5094159;28;20009;-63
2022/01/07 07:03:42;;;;;;;1.33;0.90;;;15.90;48.40;;;;;;5092461;28;20073;-62
2022/01/07 07:06:08;;;;;;;1.83;0.90;;;15.90;48.40;;;;;;5092158;28;20019;-61
2022/01/07 07:08:34;;;;;;;1.50;0.80;;;15.90;48.40;;;;;;5075215;28;20044;-62
2022/01/07 07:10:59;;;;;;;2.05;1.10;;;15.90;48.40;;;;;;5093478;28;20036;-63
2022/01/07 07:13:26;;;;;;;1.48;0.85;;;15.90;48.30;;;;;;5093434;28;20471;-63
2022/01/07 07:15:52;;;;;;;2.55;0.95;;;15.90;48.40;;;;;;5093763;28;20027;-62
2022/01/07 07:18:19;;;;;;;2.25;1.10;;;15.80;48.50;;;;;;5092603;28;20069;-63
2022/01/07 07:20:45;;;;;;;1.83;0.98;;;15.80;48.40;;;;;;5093711;28;20020;-63
2022/01/07 07:23:11;;;;;;;1.88;0.90;;;15.80;48.50;;;;;;5075257;28;20031;-63
2022/01/07 07:25:37;;;;;;;1.10;0.73;;;15.80;48.50;;;;;;5092277;28;20039;-63
2022/01/07 07:28:04;;;;;;;1.48;0.93;;;15.80;48.50;;;;;;5093408;28;20680;-63
2022/01/07 07:30:35;;;;;;;1.60;0.95;;;15.80;48.50;;;;;;5093394;28;20024;-63
2022/01/07 07:38:11;;;;;;;1.73;1.17;;;15.80;48.60;;;;;;5093069;28;20062;-62
2022/01/07 07:40:37;;;;;;;1.30;0.90;;;15.80;48.60;;;;;;5092802;28;20405;-63
2022/01/07 07:43:03;;;;;;;1.73;1.08;;;15.80;48.60;;;;;;5091709;28;20097;-63
2022/01/07 07:45:29;;;;;;;1.20;0.88;;;15.70;48.70;;;;;;5093306;28;20074;-63
2022/01/07 07:47:54;;;;;;;1.45;1.08;;;15.70;48.70;;;;;;5091994;28;20452;-62
2022/01/07 07:50:20;;;;;;;0.88;0.73;;;15.70;48.80;;;;;;5093359;28;20040;-62
2022/01/07 07:52:46;;;;;;;1.58;0.95;;;15.70;48.80;;;;;;5092063;28;20391;-64
2022/01/07 07:55:11;;;;;;;2.03;1.25;;;15.70;48.80;;;;;;5093302;28;20431;-64
2022/01/07 07:57:37;;;;;;;3.30;1.30;;;15.70;48.80;;;;;;5093082;28;20028;-64
2022/01/07 08:00:04;;;;;;;1.20;0.80;;;15.70;48.80;;;;;;5093278;28;20051;-62
2022/01/07 08:02:31;;;;;;;2.60;1.15;;;15.70;48.80;;;;;;5093414;28;20016;-65
2022/01/07 08:04:57;;;;;;;0.98;0.70;;;15.70;48.80;;;;;;5093930;28;20020;-63
2022/01/07 08:07:23;;;;;;;1.90;1.00;;;15.70;48.80;;;;;;5093482;28;20478;-66
2022/01/07 08:09:50;;;;;;;1.80;0.95;;;15.70;48.80;;;;;;5093495;28;20050;-65
2022/01/07 08:12:25;;;;;;;1.33;0.90;;;15.70;48.80;;;;;;5093580;28;20383;-64
2022/01/07 08:17:35;;;;;;;1.92;1.10;;;15.70;48.90;;;;;;5093863;28;20137;-65
2022/01/07 08:20:01;;;;;;;1.77;1.10;;;15.70;48.80;;;;;;5093853;28;20037;-64
2022/01/07 08:22:27;;;;;;;6.53;1.35;;;15.70;48.90;;;;;;5093391;28;20031;-64
2022/01/07 08:24:53;;;;;;;2.53;1.10;;;15.60;48.90;;;;;;5092314;28;20042;-65
2022/01/07 08:27:21;;;;;;;1.58;1.00;;;15.60;48.90;;;;;;5093319;28;20383;-64
2022/01/07 08:29:47;;;;;;;2.10;0.95;;;15.60;48.80;;;;;;5093158;28;20103;-66
2022/01/07 08:34:58;;;;;;;2.05;1.15;;;15.60;48.90;;;;;;5093611;28;20089;-65
2022/01/07 08:37:26;;;;;;;1.52;0.77;;;15.60;48.90;;;;;;5093491;28;20024;-64
2022/01/07 08:39:53;;;;;;;1.58;1.08;;;15.60;48.80;;;;;;5093510;28;20013;-64
2022/01/07 08:42:23;;;;;;;1.48;0.90;;;15.70;48.90;;;;;;5093578;28;20145;-64
2022/01/07 08:44:52;;;;;;;1.38;0.80;;;15.60;49.00;;;;;;5093295;28;20028;-64
2022/01/07 08:47:20;;;;;;;1.00;0.85;;;15.60;49.00;;;;;;5092513;28;20070;-62
2022/01/07 08:49:47;;;;;;;2.40;1.00;;;15.60;49.00;;;;;;5093027;28;20024;-62
2022/01/07 08:52:14;;;;;;;1.77;0.88;;;15.60;49.10;;;;;;5093496;28;20016;-63
2022/01/07 08:54:39;;;;;;;2.22;1.05;;;15.60;49.60;;;;;;5096270;28;20069;-64
2022/01/07 08:57:05;;;;;;;1.48;1.00;;;15.50;49.00;;;;;;5096261;28;20425;-64
2022/01/07 08:59:31;;;;;;;0.98;0.80;;;15.60;49.10;;;;;;5095494;28;20036;-64
2022/01/07 09:01:56;;;;;;;1.35;0.80;;;15.50;49.10;;;;;;5097814;28;20347;-63
2022/01/07 09:04:23;;;;;;;1.08;0.75;;;15.50;49.10;;;;;;5096183;28;20013;-63
2022/01/07 09:06:48;;;;;;;1.60;0.88;;;15.50;49.10;;;;;;5095931;28;20095;-63
2022/01/07 09:09:15;;;;;;;1.23;0.90;;;15.50;49.10;;;;;;5096655;28;20514;-63
2022/01/07 09:11:41;;;;;;;1.50;0.85;;;15.60;49.10;;;;;;5095793;28;20073;-63
2022/01/07 09:14:07;;;;;;;1.85;0.90;;;15.60;49.10;;;;;;5097367;28;20008;-63
2022/01/07 09:16:32;;;;;;;1.58;0.90;;;15.60;49.10;;;;;;5095706;28;20024;-64
2022/01/07 09:19:00;;;;;;;1.67;1.00;;;15.50;49.10;;;;;;5078923;28;20016;-62
2022/01/07 09:21:26;;;;;;;1.13;0.90;;;15.50;49.00;;;;;;5097841;28;20023;-64
2022/01/07 09:23:51;;;;;;;0.93;0.70;;;15.50;49.00;;;;;;5099003;28;20013;-64
2022/01/07 09:26:18;;;;;;;1.45;0.90;;;15.50;49.10;;;;;;5098827;28;20016;-64
2022/01/07 09:28:44;;;;;;;1.10;0.65;;;15.50;49.20;;;;;;5099087;28;20020;-64
2022/01/07 09:31:11;;;;;;;3.08;1.05;;;15.50;49.20;;;;;;5099734;28;20134;-63
2022/01/07 09:33:40;;;;;;;2.45;1.08;;;15.50;49.20;;;;;;5098831;28;20016;-64
2022/01/07 09:36:06;;;;;;;1.73;0.80;;;15.50;49.30;;;;;;5097488;28;20107;-64
2022/01/07 09:38:31;;;;;;;1.50;0.90;;;15.50;49.30;;;;;;5097434;28;20009;-63
2022/01/07 09:40:57;;;;;;;1.67;0.80;;;15.40;49.30;;;;;;5095906;28;20023;-64
2022/01/07 09:43:23;;;;;;;1.08;0.90;;;15.50;49.30;;;;;;5095518;28;20453;-63
2022/01/07 09:45:49;;;;;;;1.52;1.00;;;15.50;49.20;;;;;;5095528;28;20099;-63
2022/01/07 09:48:15;;;;;;;1.58;0.80;;;15.50;49.20;;;;;;5094966;28;20019;-63
2022/01/07 09:50:41;;;;;;;2.20;1.05;;;15.50;49.30;;;;;;5095288;28;20020;-63
2022/01/07 09:53:08;;;;;;;2.38;0.88;;;15.50;49.30;;;;;;5093994;28;20020;-63
2022/01/07 09:55:35;;;;;;;1.45;0.75;;;15.50;49.30;;;;;;5095134;28;20132;-63
2022/01/07 09:58:01;;;;;;;2.15;1.10;;;15.50;49.30;;;;;;5094039;28;20016;-63
2022/01/07 10:00:32;;;;;;;1.65;0.80;;;15.40;49.30;;;;;;5095184;28;20013;-63
2022/01/07 10:03:11;;;;;;;1.73;1.10;;;15.50;49.20;;;;;;5095147;28;20065;-64
2022/01/07 10:05:46;;;;;;;2.25;0.93;;;15.50;49.30;;;;;;5094209;28;20016;-65
2022/01/07 10:08:22;;;;;;;1.63;0.77;;;15.50;49.40;;;;;;5094841;28;20494;-64
2022/01/07 10:11:09;;;;;;;1.13;0.77;;;15.40;49.30;;;;;;5095161;28;20016;-64
2022/01/07 10:13:34;;;;;;;1.15;1.02;;;15.40;49.30;;;;;;5094130;28;20544;-63
2022/01/07 10:16:13;;;;;;;1.42;0.70;;;15.50;49.40;;;;;;5093180;28;20494;-64
2022/01/07 10:18:39;;;;;;;2.60;1.00;;;15.50;49.40;;;;;;5093514;28;20016;-64
2022/01/07 10:21:07;;;;;;;1.45;0.90;;;15.50;49.40;;;;;;5093419;28;20845;-64
2022/01/07 10:23:33;;;;;;;1.67;1.00;;;15.40;49.40;;;;;;5094336;28;20488;-63
2022/01/07 10:25:59;;;;;;;1.48;0.90;;;15.40;49.40;;;;;;5094432;28;20016;-63
2022/01/07 10:28:32;;;;;;;2.00;1.00;;;15.40;49.40;;;;;;5094177;28;20038;-63
2022/01/07 10:31:02;;;;;;;1.38;0.90;;;15.40;49.40;;;;;;5094513;28;20040;-63
2022/01/07 10:33:52;;;;;;;2.00;0.90;;;15.40;49.40;;;;;;5094110;28;20028;-62
2022/01/07 10:36:20;;;;;;;1.30;0.98;;;15.40;49.40;;;;;;5093883;28;20028;-63
2022/01/07 10:38:49;;;;;;;1.58;0.80;;;15.40;49.30;;;;;;5094127;28;20073;-63
2022/01/07 10:41:16;;;;;;;0.95;0.70;;;15.40;49.40;;;;;;5094283;28;20043;-63
2022/01/07 10:43:42;;;;;;;2.10;1.05;;;15.40;49.30;;;;;;5094101;28;20091;-65
2022/01/07 10:46:08;;;;;;;2.55;0.88;;;15.50;49.10;;;;;;5095247;28;20020;-64
2022/01/07 10:48:43;;;;;;;1.15;0.90;;;15.50;49.10;;;;;;5095002;28;20043;-64
2022/01/07 10:51:13;;;;;;;1.20;1.00;;;15.60;48.90;;;;;;5094637;28;20020;-65
2022/01/07 10:53:39;;;;;;;2.40;1.15;;;15.70;48.70;;;;;;5093498;28;20066;-64
2022/01/07 10:56:12;;;;;;;1.55;0.95;;;15.70;48.60;;;;;;5094567;28;20028;-64
2022/01/07 10:58:48;;;;;;;0.98;0.75;;;15.80;48.60;;;;;;5094904;28;20016;-64
2022/01/07 11:01:19;;;;;;;1.77;0.77;;;15.80;48.30;;;;;;5094451;28;20021;-63
2022/01/07 11:03:49;;;;;;;1.00;0.77;;;15.90;48.20;;;;;;5094439;28;20040;-63
2022/01/07 11:06:15;;;;;;;2.00;0.95;;;16.00;48.00;;;;;;5094026;28;20016;-63
2022/01/07 11:08:41;;;;;;;1.73;0.90;;;16.10;47.80;;;;;;5094257;28;20048;-64
2022/01/07 11:11:08;;;;;;;1.23;0.90;;;16.20;47.60;;;;;;5094384;28;20030;-63
2022/01/07 11:13:34;;;;;;;1.05;0.90;;;16.20;47.40;;;;;;5092934;28;20493;-63
2022/01/07 11:16:04;;;;;;;1.73;0.80;;;16.30;47.20;;;;;;5092321;28;20028;-62
2022/01/07 11:18:31;;;;;;;1.02;0.70;;;16.40;47.00;;;;;;5095036;28;20019;-63
2022/01/07 11:20:59;;;;;;;1.77;0.90;;;16.50;46.90;;;;;;5095212;28;20091;-63
2022/01/07 11:23:25;;;;;;;1.38;0.77;;;16.60;46.70;;;;;;5094502;28;20062;-63
2022/01/07 11:26:05;;;;;;;1.33;1.00;;;16.70;46.60;;;;;;5094284;28;20024;-65
2022/01/07 11:28:30;;;;;;;1.63;0.80;;;16.70;46.40;;;;;;5094073;28;20023;-64
2022/01/07 11:31:04;;;;;;;1.65;0.90;;;16.80;46.20;;;;;;5093258;28;20081;-64
2022/01/07 11:33:30;;;;;;;1.05;0.90;;;16.80;46.00;;;;;;5094248;28;20099;-64
2022/01/07 11:35:58;;;;;;;1.58;0.68;;;16.90;45.90;;;;;;5093441;28;20107;-64
2022/01/07 11:38:44;;;;;;;1.23;0.90;;;16.90;45.80;;;;;;5093322;28;20045;-64
2022/01/07 11:41:11;;;;;;;1.00;0.80;;;17.00;45.70;;;;;;5093045;28;20047;-63
2022/01/07 11:43:40;;;;;;;1.60;1.00;;;17.00;45.60;;;;;;5093185;28;20012;-63
2022/01/07 11:46:24;;;;;;;1.27;0.90;;;17.10;45.50;;;;;;5093324;28;20012;-64
2022/01/07 11:48:50;;;;;;;3.25;0.85;;;17.10;45.40;;;;;;5093356;28;20016;-64
2022/01/07 11:51:16;;;;;;;1.27;0.80;;;17.10;45.40;;;;;;5093220;28;20048;-63
2022/01/07 11:53:42;;;;;;;1.70;0.98;;;17.10;45.40;;;;;;5075322;28;20051;-64
2022/01/07 11:56:11;;;;;;;1.30;0.70;;;17.20;45.30;;;;;;5093379;28;20378;-63
2022/01/07 11:58:40;;;;;;;1.67;0.82;;;17.30;45.20;;;;;;5092015;28;20020;-64
2022/01/07 12:01:07;;;;;;;1.33;0.73;;;17.30;45.20;;;;;;5092858;28;20015;-64
2022/01/07 12:03:40;;;;;;;1.08;0.88;;;17.30;45.10;;;;;;5091745;28;20022;-65
2022/01/07 12:06:27;;;;;;;1.48;0.90;;;17.30;45.00;;;;;;5092665;28;20095;-64
2022/01/07 12:09:03;;;;;;;1.48;0.88;;;17.40;45.00;;;;;;5092743;28;20093;-64
2022/01/07 12:11:40;;;;;;;1.38;0.70;;;17.40;45.00;;;;;;5093222;28;20028;-63
2022/01/07 12:14:23;;;;;;;1.35;0.80;;;17.40;44.90;;;;;;5093169;28;20012;-64
2022/01/07 12:16:50;;;;;;;2.33;0.80;;;17.40;44.90;;;;;;5092874;28;20024;-64
2022/01/07 12:19:28;;;;;;;1.50;0.80;;;17.40;44.80;;;;;;5092711;28;20008;-63
2022/01/07 12:21:57;;;;;;;1.63;0.80;;;17.50;44.80;;;;;;5092772;28;20034;-64
2022/01/07 12:24:25;;;;;;;1.15;0.65;;;17.50;44.70;;;;;;5093015;28;20042;-63
2022/01/07 12:27:09;;;;;;;0.73;0.65;;;17.50;44.70;;;;;;5093023;28;20019;-63
2022/01/07 12:29:36;;;;;;;2.85;0.80;;;17.50;44.70;;;;;;5096526;28;20047;-63
2022/01/07 12:32:05;;;;;;;1.98;0.90;;;17.60;44.70;;;;;;5097396;28;20024;-64
2022/01/07 12:34:34;;;;;;;1.48;0.90;;;17.60;44.70;;;;;;5097235;28;20020;-63
2022/01/07 12:37:05;;;;;;;1.25;0.90;;;17.60;44.60;;;;;;5096714;28;20062;-64
2022/01/07 12:39:38;;;;;;;1.15;0.85;;;17.60;44.60;;;;;;5096988;28;20470;-64
2022/01/07 12:42:04;;;;;;;1.33;0.80;;;17.60;44.50;;;;;;5095555;28;20028;-63
2022/01/07 12:44:34;;;;;;;1.20;0.65;;;17.60;44.50;;;;;;5096831;28;20028;-63
2022/01/07 12:47:00;;;;;;;1.60;0.83;;;17.60;44.40;;;;;;5097008;28;20027;-64
2022/01/07 12:49:45;;;;;;;0.68;0.60;;;17.70;44.50;;;;;;5096344;28;20426;-64
2022/01/07 12:52:25;;;;;;;1.40;0.90;;;17.70;44.40;;;;;;5096499;28;20013;-63
2022/01/07 12:54:59;;;;;;;1.88;1.13;;;17.70;44.40;;;;;;5096282;28;20694;-63
2022/01/07 12:57:30;;;;;;;1.50;0.80;;;17.70;44.40;;;;;;5096571;28;20012;-63
2022/01/07 13:00:16;;;;;;;2.13;0.77;;;17.70;44.40;;;;;;5096568;28;20017;-63
2022/01/07 13:02:45;;;;;;;1.13;0.80;;;17.70;44.30;;;;;;5096891;28;20386;-63